createdAt,value
2018-04-24T00:02:35.140Z,100796.34
2018-04-24T00:05:37.729Z,100792.30
2018-04-24T00:08:40.266Z,100788.23
2018-04-24T00:11:42.788Z,100788.52
2018-04-24T00:14:45.352Z,100790.76
2018-04-24T00:17:49.073Z,100791.74
2018-04-24T00:20:51.720Z,100792.78
2018-04-24T00:23:54.297Z,100794.80
2018-04-24T00:26:59.733Z,100807.95
2018-04-24T00:30:04.341Z,100800.02
2018-04-24T00:33:07.726Z,100801.01
2018-04-24T00:36:10.512Z,100804.33
2018-04-24T00:39:13.061Z,100812.31
2018-04-24T00:42:16.277Z,100815.23
2018-04-24T00:45:19.874Z,100812.96
2018-04-24T00:48:23.335Z,100815.84
2018-04-24T00:51:25.852Z,100824.02
2018-04-24T00:54:28.522Z,100820.09
2018-04-24T00:57:31.661Z,100821.51
2018-04-24T01:00:34.196Z,100823.94
2018-04-24T01:03:36.782Z,100815.70
2018-04-24T01:06:39.357Z,100816.10
2018-04-24T01:09:41.964Z,100815.23
2018-04-24T01:12:44.576Z,100819.44
2018-04-24T01:15:48.563Z,100816.05
2018-04-24T01:18:51.127Z,100812.80
2018-04-24T01:21:53.646Z,100811.59
2018-04-24T01:24:56.182Z,100811.67
2018-04-24T01:27:58.952Z,100832.79
2018-04-24T01:31:02.968Z,100821.09
2018-04-24T01:34:05.545Z,100823.13
2018-04-24T01:37:08.061Z,100838.59
2018-04-24T01:40:11.745Z,100837.86
2018-04-24T01:43:16.229Z,100848.52
2018-04-24T01:46:18.847Z,100849.30
2018-04-24T01:49:21.363Z,100846.06
2018-04-24T01:52:23.937Z,100844.38
2018-04-24T01:55:26.649Z,100846.69
2018-04-24T01:58:29.191Z,100841.25
2018-04-24T02:01:31.770Z,100856.11
2018-04-24T02:04:34.447Z,100857.43
2018-04-24T02:07:36.928Z,100844.86
2018-04-24T02:10:39.425Z,100839.01
2018-04-24T02:13:41.931Z,100843.33
2018-04-24T02:16:44.411Z,100839.73
2018-04-24T02:19:46.935Z,100840.67
2018-04-24T02:22:49.431Z,100854.14
2018-04-24T02:25:51.977Z,100850.59
2018-04-24T02:28:54.440Z,100859.50
2018-04-24T02:31:56.931Z,100856.26
2018-04-24T02:34:59.433Z,100859.09
2018-04-24T02:38:01.953Z,100847.74
2018-04-24T02:41:04.473Z,100851.31
2018-04-24T02:44:06.972Z,100862.44
2018-04-24T02:47:09.469Z,100862.28
2018-04-24T02:50:12.066Z,100869.22
2018-04-24T02:53:14.606Z,100870.16
2018-04-24T02:56:17.115Z,100857.69
2018-04-24T02:59:19.615Z,100862.98
2018-04-24T03:02:22.172Z,100854.48
2018-04-24T03:05:24.706Z,100848.42
2018-04-24T03:08:29.855Z,100858.22
2018-04-24T03:11:32.404Z,100858.00
2018-04-24T03:14:34.915Z,100857.64
2018-04-24T03:17:37.387Z,100853.01
2018-04-24T03:20:40.928Z,100843.31
2018-04-24T03:23:44.614Z,100836.12
2018-04-24T03:26:49.457Z,100829.04
2018-04-24T03:29:52.096Z,100821.06
2018-04-24T03:32:55.919Z,100821.39
2018-04-24T03:35:58.484Z,100820.45
2018-04-24T03:39:01.061Z,100809.87
2018-04-24T03:42:04.366Z,100803.50
2018-04-24T03:45:06.944Z,100811.96
2018-04-24T03:48:10.385Z,100817.06
2018-04-24T03:51:12.910Z,100821.87
2018-04-24T03:54:15.459Z,100820.30
2018-04-24T03:57:19.176Z,100826.52
2018-04-24T04:00:23.133Z,100820.06
2018-04-24T04:03:25.653Z,100820.13
2018-04-24T04:06:28.351Z,100831.46
2018-04-24T04:09:30.861Z,100828.22
2018-04-24T04:12:33.362Z,100823.22
2018-04-24T04:15:35.901Z,100817.77
2018-04-24T04:18:50.308Z,100828.14
2018-04-24T04:22:04.545Z,100819.16
2018-04-24T04:25:07.048Z,100820.23
2018-04-24T04:28:10.149Z,100817.55
2018-04-24T04:31:12.711Z,100818.16
2018-04-24T04:34:15.319Z,100818.00
2018-04-24T04:37:17.822Z,100812.66
2018-04-24T04:40:20.340Z,100821.80
2018-04-24T04:43:22.831Z,100820.23
2018-04-24T04:46:25.319Z,100811.65
2018-04-24T04:49:27.826Z,100804.23
2018-04-24T04:52:30.351Z,100803.95
2018-04-24T04:55:34.010Z,100800.73
2018-04-24T04:58:36.577Z,100803.33
2018-04-24T05:01:40.322Z,100798.37
2018-04-24T05:04:42.820Z,100799.87
2018-04-24T05:07:48.929Z,100792.39
2018-04-24T05:10:51.448Z,100804.56
2018-04-24T05:13:53.977Z,100806.16
2018-04-24T05:16:56.469Z,100799.21
2018-04-24T05:19:59.049Z,100803.22
2018-04-24T05:23:01.564Z,100799.42
2018-04-24T05:26:04.034Z,100801.86
2018-04-24T05:29:06.563Z,100795.62
2018-04-24T05:32:09.085Z,100791.02
2018-04-24T05:35:12.098Z,100787.09
2018-04-24T05:38:14.600Z,100796.89
2018-04-24T05:41:17.145Z,100812.01
2018-04-24T05:44:19.721Z,100814.97
2018-04-24T05:47:22.371Z,100804.58
2018-04-24T05:50:26.472Z,100796.13
2018-04-24T05:53:28.984Z,100807.08
2018-04-24T05:56:31.529Z,100804.48
2018-04-24T05:59:34.026Z,100798.61
2018-04-24T06:02:36.542Z,100794.99
2018-04-24T06:05:39.140Z,100793.11
2018-04-24T06:08:41.730Z,100791.94
2018-04-24T06:11:44.289Z,100775.03
2018-04-24T06:14:46.933Z,100773.00
2018-04-24T06:17:49.444Z,100773.91
2018-04-24T06:20:52.417Z,100780.75
2018-04-24T06:23:54.948Z,100788.06
2018-04-24T06:26:57.510Z,100789.50
2018-04-24T06:30:00.102Z,100795.55
2018-04-24T06:33:03.184Z,100794.91
2018-04-24T06:36:05.964Z,100795.41
2018-04-24T06:39:08.643Z,100798.02
2018-04-24T06:42:11.211Z,100792.50
2018-04-24T06:45:13.693Z,100784.70
2018-04-24T06:48:16.234Z,100778.66
2018-04-24T06:51:18.727Z,100790.78
2018-04-24T06:54:21.232Z,100791.53
2018-04-24T06:57:23.915Z,100792.28
2018-04-24T07:00:26.612Z,100780.51
2018-04-24T07:03:29.358Z,100775.52
2018-04-24T07:06:31.964Z,100771.83
2018-04-24T07:09:34.687Z,100773.62
2018-04-24T07:12:37.996Z,100777.59
2018-04-24T07:15:40.504Z,100772.26
2018-04-24T07:18:42.986Z,100762.83
2018-04-24T07:21:45.523Z,100765.70
2018-04-24T07:24:48.000Z,100761.72
2018-04-24T07:27:50.496Z,100754.47
2018-04-24T07:30:53.915Z,100755.33
2018-04-24T07:33:56.427Z,100741.22
2018-04-24T07:36:59.808Z,100745.69
2018-04-24T07:40:02.456Z,100743.34
2018-04-24T07:43:05.039Z,100733.31
2018-04-24T07:46:07.645Z,100722.19
2018-04-24T07:49:10.172Z,100719.66
2018-04-24T07:52:12.669Z,100726.73
2018-04-24T07:55:15.194Z,100713.40
2018-04-24T07:58:17.722Z,100710.55
2018-04-24T08:01:20.250Z,100701.07
2018-04-24T08:04:22.739Z,100701.45
2018-04-24T08:07:25.505Z,100695.66
2018-04-24T08:13:36.806Z,100690.18
2018-04-24T08:16:39.366Z,100703.34
2018-04-24T08:19:41.872Z,100688.11
2018-04-24T08:22:45.168Z,100687.80
2018-04-24T08:25:47.658Z,100685.80
2018-04-24T08:28:50.145Z,100689.02
2018-04-24T08:31:52.683Z,100693.61
2018-04-24T08:34:56.081Z,100690.57
2018-04-24T08:37:59.259Z,100682.62
2018-04-24T08:41:01.831Z,100678.90
2018-04-24T08:44:04.377Z,100709.66
2018-04-24T08:47:07.045Z,100681.03
2018-04-24T08:50:09.581Z,100687.87
2018-04-24T08:53:12.225Z,100673.88
2018-04-24T08:56:14.774Z,100671.13
2018-04-24T08:59:17.259Z,100667.57
2018-04-24T09:02:19.805Z,100678.97
2018-04-24T09:05:22.312Z,100704.69
2018-04-24T09:08:24.967Z,100698.14
2018-04-24T09:11:27.479Z,100686.81
2018-04-24T09:14:30.021Z,100689.31
2018-04-24T09:17:32.506Z,100665.79
2018-04-24T09:20:35.004Z,100669.86
2018-04-24T09:23:37.512Z,100668.31
2018-04-24T09:26:40.046Z,100676.38
2018-04-24T09:29:42.866Z,100672.38
2018-04-24T09:32:45.405Z,100669.31
2018-04-24T09:35:47.918Z,100666.48
2018-04-24T09:38:50.408Z,100664.92
2018-04-24T09:41:52.957Z,100655.97
2018-04-24T09:44:57.514Z,100660.27
2018-04-24T09:48:00.038Z,100659.66
2018-04-24T09:51:03.623Z,100660.53
2018-04-24T09:54:06.163Z,100664.27
2018-04-24T09:57:08.720Z,100674.03
2018-04-24T10:00:11.262Z,100679.02
2018-04-24T10:03:13.829Z,100669.26
2018-04-24T10:06:16.324Z,100663.87
2018-04-24T10:09:18.797Z,100672.77
2018-04-24T10:12:21.321Z,100678.77
2018-04-24T10:15:23.853Z,100679.38
2018-04-24T10:18:26.366Z,100694.17
2018-04-24T10:21:29.583Z,100690.84
2018-04-24T10:24:32.696Z,100689.92
2018-04-24T10:27:35.204Z,100686.39
2018-04-24T10:30:37.746Z,100707.48
2018-04-24T10:33:40.232Z,100688.95
2018-04-24T10:36:42.740Z,100704.10
2018-04-24T10:39:45.245Z,100738.76
2018-04-24T10:42:47.767Z,100707.16
2018-04-24T10:45:50.954Z,100703.55
2018-04-24T10:48:53.470Z,100712.20
2018-04-24T10:51:55.956Z,100698.28
2018-04-24T10:54:58.511Z,100695.88
2018-04-24T10:58:01.045Z,100688.12
2018-04-24T11:01:04.451Z,100705.23
2018-04-24T11:04:06.942Z,100692.44
2018-04-24T11:07:09.436Z,100687.27
2018-04-24T11:10:11.934Z,100699.86
2018-04-24T11:13:14.540Z,100706.81
2018-04-24T11:16:17.007Z,100717.67
2018-04-24T11:19:20.643Z,100721.97
2018-04-24T11:22:23.221Z,100735.48
2018-04-24T11:25:25.781Z,100727.00
2018-04-24T11:28:29.459Z,100734.03
2018-04-24T11:31:32.564Z,100733.30
2018-04-24T11:34:35.079Z,100727.12
2018-04-24T11:37:37.659Z,100733.52
2018-04-24T11:40:40.255Z,100718.52
2018-04-24T11:43:42.789Z,100715.25
2018-04-24T11:46:45.335Z,100726.23
2018-04-24T11:49:47.834Z,100720.25
2018-04-24T11:52:50.529Z,100720.25
2018-04-24T11:55:53.057Z,100711.17
2018-04-24T11:58:55.961Z,100705.83
2018-04-24T12:01:58.510Z,100715.83
2018-04-24T12:05:01.161Z,100707.58
2018-04-24T12:08:03.728Z,100713.23
2018-04-24T12:11:06.260Z,100724.40
2018-04-24T12:14:08.790Z,100727.59
2018-04-24T12:17:11.263Z,100710.83
2018-04-24T12:20:13.776Z,100718.55
2018-04-24T12:23:16.296Z,100722.80
2018-04-24T12:26:18.785Z,100722.50
2018-04-24T12:29:21.288Z,100728.58
2018-04-24T12:32:23.895Z,100727.52
2018-04-24T12:35:26.411Z,100739.47
2018-04-24T12:38:29.051Z,100726.88
2018-04-24T12:41:31.558Z,100732.67
2018-04-24T12:44:34.287Z,100717.90
2018-04-24T12:47:37.152Z,100722.73
2018-04-24T12:50:39.661Z,100704.34
2018-04-24T12:53:42.188Z,100709.40
2018-04-24T12:56:45.378Z,100745.26
2018-04-24T12:59:47.893Z,100724.45
2018-04-24T13:02:50.413Z,100731.03
2018-04-24T13:05:53.065Z,100731.03
2018-04-24T13:08:55.564Z,100720.43
2018-04-24T13:11:58.894Z,100729.77
2018-04-24T13:15:01.458Z,100739.53
2018-04-24T13:18:04.062Z,100735.16
2018-04-24T13:21:06.560Z,100729.36
2018-04-24T13:24:09.365Z,100725.25
2018-04-24T13:27:11.970Z,100733.77
2018-04-24T13:30:14.494Z,100729.89
2018-04-24T13:33:17.032Z,100736.47
2018-04-24T13:36:19.550Z,100746.69
2018-04-24T13:39:22.089Z,100749.39
2018-04-24T13:42:24.642Z,100742.80
2018-04-24T13:45:27.128Z,100749.03
2018-04-24T13:48:29.673Z,100752.11
2018-04-24T13:51:32.237Z,100757.95
2018-04-24T13:54:34.805Z,100757.66
2018-04-24T13:57:37.290Z,100755.53
2018-04-24T14:00:39.845Z,100757.60
2018-04-24T14:03:42.579Z,100729.88
2018-04-24T14:06:45.149Z,100722.86
2018-04-24T14:09:47.854Z,100712.31
2018-04-24T14:12:50.514Z,100698.95
2018-04-24T14:15:53.060Z,100684.03
2018-04-24T14:18:55.651Z,100695.23
2018-04-24T14:21:58.179Z,100691.73
2018-04-24T14:25:00.722Z,100698.91
2018-04-24T14:28:03.277Z,100695.59
2018-04-24T14:31:05.827Z,100701.98
2018-04-24T14:34:08.452Z,100698.73
2018-04-24T14:37:10.979Z,100700.76
2018-04-24T14:40:13.624Z,100705.84
2018-04-24T14:43:16.197Z,100709.73
2018-04-24T14:46:18.786Z,100698.98
2018-04-24T14:49:21.369Z,100719.45
2018-04-24T14:52:24.652Z,100709.19
2018-04-24T14:55:27.956Z,100704.23
2018-04-24T14:58:30.437Z,100711.13
2018-04-24T15:01:32.973Z,100709.28
2018-04-24T15:04:35.516Z,100696.65
2018-04-24T15:07:38.083Z,100693.03
2018-04-24T15:10:40.807Z,100687.92
2018-04-24T15:13:43.451Z,100684.45
2018-04-24T15:16:46.567Z,100683.13
2018-04-24T15:19:49.192Z,100677.79
2018-04-24T15:22:52.703Z,100689.05
2018-04-24T15:25:55.415Z,100698.13
2018-04-24T15:28:58.070Z,100696.23
2018-04-24T15:32:00.670Z,100704.54
2018-04-24T15:35:03.365Z,100696.73
2018-04-24T15:38:05.920Z,100722.30
2018-04-24T15:41:08.482Z,100707.51
2018-04-24T15:44:11.028Z,100695.33
2018-04-24T15:47:13.689Z,100709.25
2018-04-24T15:50:16.233Z,100693.38
2018-04-24T15:53:18.977Z,100685.44
2018-04-24T15:56:21.783Z,100680.81
2018-04-24T15:59:24.394Z,100684.84
2018-04-24T16:02:27.035Z,100683.64
2018-04-24T16:05:29.592Z,100683.55
2018-04-24T16:08:32.228Z,100688.89
2018-04-24T16:11:34.815Z,100684.06
2018-04-24T16:14:37.351Z,100684.23
2018-04-24T16:17:40.069Z,100686.04
2018-04-24T16:20:42.576Z,100694.25
2018-04-24T16:23:45.546Z,100684.58
2018-04-24T16:26:48.148Z,100688.06
2018-04-24T16:29:50.795Z,100678.08
2018-04-24T16:32:53.378Z,100689.44
2018-04-24T16:35:55.920Z,100678.97
2018-04-24T16:38:58.562Z,100674.25
2018-04-24T16:42:01.258Z,100687.33
2018-04-24T16:45:04.519Z,100683.53
2018-04-24T16:48:07.097Z,100689.06
2018-04-24T16:51:09.695Z,100678.11
2018-04-24T16:54:12.359Z,100675.68
2018-04-24T16:57:14.949Z,100681.30
2018-04-24T17:00:17.520Z,100691.55
2018-04-24T17:03:20.557Z,100681.45
2018-04-24T17:06:23.286Z,100685.20
2018-04-24T17:09:26.213Z,100689.34
2018-04-24T17:12:28.777Z,100686.78
2018-04-24T17:15:31.636Z,100685.77
2018-04-24T17:18:34.741Z,100689.40
2018-04-24T17:21:37.487Z,100685.66
2018-04-24T17:24:40.089Z,100690.31
2018-04-24T17:27:42.900Z,100681.34
2018-04-24T17:30:45.553Z,100688.22
2018-04-24T17:33:48.727Z,100679.25
2018-04-24T17:36:51.709Z,100678.59
2018-04-24T17:39:54.453Z,100671.88
2018-04-24T17:42:57.187Z,100662.72
2018-04-24T17:46:00.125Z,100671.92
2018-04-24T17:49:02.897Z,100664.85
2018-04-24T17:52:05.740Z,100659.05
2018-04-24T17:55:08.427Z,100661.86
2018-04-24T17:58:11.052Z,100659.38
2018-04-24T18:01:14.043Z,100663.59
2018-04-24T18:04:16.658Z,100658.39
2018-04-24T18:07:19.368Z,100664.19
2018-04-24T18:10:22.066Z,100665.96
2018-04-24T18:13:24.911Z,100680.36
2018-04-24T18:16:28.266Z,100678.59
2018-04-24T18:19:30.883Z,100670.54
2018-04-24T18:22:33.594Z,100676.29
2018-04-24T18:25:36.956Z,100682.40
2018-04-24T18:28:39.797Z,100680.94
2018-04-24T18:31:42.427Z,100677.34
2018-04-24T18:34:45.089Z,100677.66
2018-04-24T18:37:47.919Z,100675.25
2018-04-24T18:40:50.606Z,100674.98
2018-04-24T18:43:53.313Z,100664.52
2018-04-24T18:46:56.041Z,100660.48
2018-04-24T18:50:00.088Z,100653.80
2018-04-24T18:53:02.898Z,100661.22
2018-04-24T18:56:05.622Z,100669.80
2018-04-24T18:59:08.353Z,100661.70
2018-04-24T19:02:11.096Z,100664.69
2018-04-24T19:05:13.845Z,100655.55
2018-04-24T19:08:16.529Z,100665.30
2018-04-24T19:11:19.464Z,100652.38
2018-04-24T19:14:25.610Z,100657.44
2018-04-24T19:17:28.574Z,100650.38
2018-04-24T19:20:31.284Z,100661.20
2018-04-24T19:23:33.970Z,100656.23
2018-04-24T19:26:36.671Z,100662.55
2018-04-24T19:29:39.387Z,100666.92
2018-04-24T19:32:42.331Z,100677.94
2018-04-24T19:35:45.092Z,100667.80
2018-04-24T19:38:58.712Z,100663.66
2018-04-24T19:42:01.450Z,100668.22
2018-04-24T19:45:04.135Z,100658.70
2018-04-24T19:48:06.813Z,100661.13
2018-04-24T19:51:09.588Z,100652.44
2018-04-24T19:54:14.877Z,100657.44
2018-04-24T19:57:19.729Z,100655.84
2018-04-24T20:00:23.141Z,100652.32
2018-04-24T20:03:28.747Z,100654.02
2018-04-24T20:06:36.652Z,100651.03
2018-04-24T20:09:40.970Z,100638.66
2018-04-24T20:12:46.235Z,100641.17
2018-04-24T20:15:51.317Z,100635.45
2018-04-24T20:18:55.122Z,100637.63
2018-04-24T20:21:58.814Z,100627.74
2018-04-24T20:25:02.061Z,100625.76
2018-04-24T20:28:05.602Z,100619.87
2018-04-24T20:31:09.491Z,100610.67
2018-04-24T20:34:12.372Z,100610.48
2018-04-24T20:37:15.245Z,100609.68
2018-04-24T20:40:18.835Z,100604.58
2018-04-24T20:43:22.422Z,100610.64
2018-04-24T20:46:26.956Z,100614.69
2018-04-24T20:49:30.073Z,100609.19
2018-04-24T20:52:33.443Z,100607.84
2018-04-24T20:55:36.427Z,100608.14
2018-04-24T20:58:39.421Z,100602.97
2018-04-24T21:01:42.677Z,100592.38
2018-04-24T21:04:45.356Z,100599.61
2018-04-24T21:07:47.965Z,100588.66
2018-04-24T21:10:50.565Z,100591.11
2018-04-24T21:13:53.165Z,100589.61
2018-04-24T21:16:55.667Z,100582.75
2018-04-24T21:19:58.297Z,100576.82
2018-04-24T21:23:00.823Z,100581.67
2018-04-24T21:26:03.352Z,100580.70
2018-04-24T21:29:05.979Z,100578.39
2018-04-24T21:32:08.498Z,100574.12
2018-04-24T21:35:11.109Z,100569.16
2018-04-24T21:38:13.717Z,100567.45
2018-04-24T21:41:16.219Z,100561.34
2018-04-24T21:44:18.720Z,100555.99
2018-04-24T21:47:21.286Z,100561.06
2018-04-24T21:50:23.806Z,100552.55
2018-04-24T21:53:26.372Z,100556.30
2018-04-24T21:56:28.895Z,100552.28
2018-04-24T21:59:31.394Z,100559.15
2018-04-24T22:02:33.967Z,100550.67
2018-04-24T22:05:36.534Z,100547.16
2018-04-24T22:08:39.074Z,100550.62
2018-04-24T22:11:41.596Z,100541.89
2018-04-24T22:14:44.099Z,100540.98
2018-04-24T22:17:46.586Z,100524.58
2018-04-24T22:20:49.080Z,100530.04
2018-04-24T22:23:51.609Z,100524.08
2018-04-24T22:26:54.148Z,100518.61
2018-04-24T22:29:56.647Z,100512.03
2018-04-24T22:32:59.171Z,100512.95
2018-04-24T22:36:01.658Z,100508.31
2018-04-24T22:39:04.171Z,100501.25
2018-04-24T22:42:06.711Z,100504.35
2018-04-24T22:45:09.210Z,100501.89
2018-04-24T22:48:11.728Z,100491.52
2018-04-24T22:51:14.559Z,100495.17
2018-04-24T22:54:17.079Z,100492.42
2018-04-24T22:57:19.632Z,100486.97
2018-04-24T23:00:22.117Z,100483.25
2018-04-24T23:03:24.624Z,100479.45
2018-04-24T23:06:27.111Z,100468.80
2018-04-24T23:09:29.642Z,100453.87
2018-04-24T23:12:43.846Z,100462.74
2018-04-24T23:15:58.055Z,100462.62
2018-04-24T23:19:12.215Z,100466.55
2018-04-24T23:22:34.291Z,100452.92
2018-04-24T23:25:36.818Z,100461.73
2018-04-24T23:28:39.346Z,100458.45
2018-04-24T23:31:41.880Z,100457.55
2018-04-24T23:34:44.408Z,100451.88
2018-04-24T23:37:46.907Z,100450.25
2018-04-24T23:40:49.405Z,100455.75
2018-04-24T23:43:51.927Z,100455.72
2018-04-24T23:46:54.458Z,100457.64
2018-04-24T23:49:56.935Z,100446.34
2018-04-24T23:52:59.451Z,100432.38
2018-04-24T23:56:01.935Z,100438.72
2018-04-24T23:59:04.698Z,100430.95
